Hickory Hill, Tennessee
Current Conditions -  °F | °C
As of 8:15 PM on Thursday 20 Nov 2014 (Local Time) from KOLV Reporting Station
Few Clouds Few Clouds  
Wind Chill: 42°   Ceiling: Unl
Heat Index: 45°   Visibility: 10mi
Dew Point: 30°   Wind: 5mph
Humidity: 57%   Direction: 70°ENE
Pressure: 30.23"   Gusts: NA
Location:  35.0258°N, 89.7862°W
Report Text: KOLV 210215Z AUTO 07004KT 10SM FEW045 07/M01 A3023 RMK A01 P000
Loading
Personal Weather Stations






























Interactive Weather Map New forecast layout! Learn more

10-Day Weather Forecast

Advertisements
Track Severe Weather on mobile